sensor_id;sensor_type;location;lat;lon;timestamp;P1;durP1;ratioP1;P2;durP2;ratioP2
63346;SDS011;49472;49.880;8.650;2023-07-13T00:01:03;12.17;;;11.30;;
63346;SDS011;49472;49.880;8.650;2023-07-13T00:03:28;12.00;;;11.20;;
63346;SDS011;49472;49.880;8.650;2023-07-13T00:06:00;12.75;;;10.85;;
63346;SDS011;49472;49.880;8.650;2023-07-13T00:08:26;12.13;;;11.10;;
63346;SDS011;49472;49.880;8.650;2023-07-13T00:10:55;12.20;;;11.20;;
63346;SDS011;49472;49.880;8.650;2023-07-13T00:13:20;12.13;;;10.90;;
63346;SDS011;49472;49.880;8.650;2023-07-13T00:15:45;11.73;;;10.80;;
63346;SDS011;49472;49.880;8.650;2023-07-13T00:18:11;12.27;;;11.20;;
63346;SDS011;49472;49.880;8.650;2023-07-13T00:20:36;11.70;;;10.70;;
63346;SDS011;49472;49.880;8.650;2023-07-13T00:23:02;12.38;;;11.25;;
63346;SDS011;49472;49.880;8.650;2023-07-13T00:25:27;12.63;;;11.40;;
63346;SDS011;49472;49.880;8.650;2023-07-13T00:27:55;17.90;;;11.30;;
63346;SDS011;49472;49.880;8.650;2023-07-13T00:30:21;11.65;;;10.85;;
63346;SDS011;49472;49.880;8.650;2023-07-13T00:32:47;11.93;;;10.95;;
63346;SDS011;49472;49.880;8.650;2023-07-13T00:35:13;12.05;;;11.05;;
63346;SDS011;49472;49.880;8.650;2023-07-13T00:37:40;12.50;;;11.50;;
63346;SDS011;49472;49.880;8.650;2023-07-13T00:40:06;11.90;;;11.20;;
63346;SDS011;49472;49.880;8.650;2023-07-13T00:42:32;12.27;;;11.23;;
63346;SDS011;49472;49.880;8.650;2023-07-13T00:47:46;13.23;;;12.00;;
63346;SDS011;49472;49.880;8.650;2023-07-13T00:50:12;12.57;;;11.60;;
63346;SDS011;49472;49.880;8.650;2023-07-13T00:52:41;12.70;;;11.50;;
63346;SDS011;49472;49.880;8.650;2023-07-13T00:55:16;12.27;;;11.20;;
63346;SDS011;49472;49.880;8.650;2023-07-13T00:57:43;12.53;;;11.73;;
63346;SDS011;49472;49.880;8.650;2023-07-13T01:00:09;11.63;;;10.93;;
63346;SDS011;49472;49.880;8.650;2023-07-13T01:02:40;12.30;;;11.13;;
63346;SDS011;49472;49.880;8.650;2023-07-13T01:05:10;13.13;;;11.90;;
63346;SDS011;49472;49.880;8.650;2023-07-13T01:07:40;11.80;;;10.90;;
63346;SDS011;49472;49.880;8.650;2023-07-13T01:10:07;12.57;;;11.70;;
63346;SDS011;49472;49.880;8.650;2023-07-13T01:12:33;12.50;;;11.67;;
63346;SDS011;49472;49.880;8.650;2023-07-13T01:14:59;13.30;;;11.43;;
63346;SDS011;49472;49.880;8.650;2023-07-13T01:17:26;12.35;;;11.55;;
63346;SDS011;49472;49.880;8.650;2023-07-13T01:19:53;12.17;;;11.37;;
63346;SDS011;49472;49.880;8.650;2023-07-13T01:22:18;11.97;;;11.27;;
63346;SDS011;49472;49.880;8.650;2023-07-13T01:24:45;12.73;;;11.70;;
63346;SDS011;49472;49.880;8.650;2023-07-13T01:27:13;13.20;;;11.48;;
63346;SDS011;49472;49.880;8.650;2023-07-13T01:29:44;12.60;;;11.80;;
63346;SDS011;49472;49.880;8.650;2023-07-13T01:32:13;12.52;;;11.52;;
63346;SDS011;49472;49.880;8.650;2023-07-13T01:34:41;12.40;;;11.70;;
63346;SDS011;49472;49.880;8.650;2023-07-13T01:37:07;12.70;;;11.77;;
63346;SDS011;49472;49.880;8.650;2023-07-13T01:39:34;12.57;;;11.67;;
63346;SDS011;49472;49.880;8.650;2023-07-13T01:42:00;12.20;;;11.10;;
63346;SDS011;49472;49.880;8.650;2023-07-13T01:44:25;12.68;;;11.25;;
63346;SDS011;49472;49.880;8.650;2023-07-13T01:46:51;14.80;;;12.00;;
63346;SDS011;49472;49.880;8.650;2023-07-13T01:49:16;12.90;;;11.60;;
63346;SDS011;49472;49.880;8.650;2023-07-13T01:51:42;12.47;;;11.47;;
63346;SDS011;49472;49.880;8.650;2023-07-13T01:54:07;18.20;;;11.90;;
63346;SDS011;49472;49.880;8.650;2023-07-13T01:56:32;13.33;;;12.43;;
63346;SDS011;49472;49.880;8.650;2023-07-13T01:58:57;12.77;;;11.70;;
63346;SDS011;49472;49.880;8.650;2023-07-13T02:01:23;12.10;;;11.35;;
63346;SDS011;49472;49.880;8.650;2023-07-13T02:03:48;13.50;;;12.40;;
63346;SDS011;49472;49.880;8.650;2023-07-13T02:06:14;13.33;;;12.43;;
63346;SDS011;49472;49.880;8.650;2023-07-13T02:08:40;13.60;;;12.30;;
63346;SDS011;49472;49.880;8.650;2023-07-13T02:11:06;12.90;;;11.87;;
63346;SDS011;49472;49.880;8.650;2023-07-13T02:13:31;12.63;;;11.68;;
63346;SDS011;49472;49.880;8.650;2023-07-13T02:15:57;12.83;;;11.60;;
63346;SDS011;49472;49.880;8.650;2023-07-13T02:18:22;13.87;;;12.87;;
63346;SDS011;49472;49.880;8.650;2023-07-13T02:20:47;13.35;;;12.35;;
63346;SDS011;49472;49.880;8.650;2023-07-13T02:23:13;13.37;;;12.27;;
63346;SDS011;49472;49.880;8.650;2023-07-13T02:25:38;13.70;;;12.50;;
63346;SDS011;49472;49.880;8.650;2023-07-13T02:28:04;13.17;;;12.33;;
63346;SDS011;49472;49.880;8.650;2023-07-13T02:30:30;13.10;;;12.10;;
63346;SDS011;49472;49.880;8.650;2023-07-13T02:32:56;12.90;;;11.90;;
63346;SDS011;49472;49.880;8.650;2023-07-13T02:35:22;14.17;;;12.80;;
63346;SDS011;49472;49.880;8.650;2023-07-13T02:37:48;14.47;;;12.67;;
63346;SDS011;49472;49.880;8.650;2023-07-13T02:40:13;13.37;;;12.37;;
63346;SDS011;49472;49.880;8.650;2023-07-13T02:42:39;15.53;;;12.63;;
63346;SDS011;49472;49.880;8.650;2023-07-13T02:45:05;14.00;;;12.80;;
63346;SDS011;49472;49.880;8.650;2023-07-13T02:47:31;14.07;;;12.83;;
63346;SDS011;49472;49.880;8.650;2023-07-13T02:49:57;12.90;;;12.10;;
63346;SDS011;49472;49.880;8.650;2023-07-13T02:52:23;13.13;;;12.00;;
63346;SDS011;49472;49.880;8.650;2023-07-13T02:54:49;12.83;;;11.93;;
63346;SDS011;49472;49.880;8.650;2023-07-13T02:57:14;14.07;;;12.87;;
63346;SDS011;49472;49.880;8.650;2023-07-13T02:59:40;12.80;;;12.10;;
63346;SDS011;49472;49.880;8.650;2023-07-13T03:02:06;13.50;;;12.53;;
63346;SDS011;49472;49.880;8.650;2023-07-13T03:04:31;12.97;;;12.07;;
63346;SDS011;49472;49.880;8.650;2023-07-13T03:06:56;14.30;;;13.03;;
63346;SDS011;49472;49.880;8.650;2023-07-13T03:09:23;16.67;;;12.30;;
63346;SDS011;49472;49.880;8.650;2023-07-13T03:11:49;13.60;;;12.40;;
63346;SDS011;49472;49.880;8.650;2023-07-13T03:14:14;17.73;;;13.20;;
63346;SDS011;49472;49.880;8.650;2023-07-13T03:16:39;13.70;;;12.67;;
63346;SDS011;49472;49.880;8.650;2023-07-13T03:19:05;14.03;;;12.37;;
63346;SDS011;49472;49.880;8.650;2023-07-13T03:21:30;13.47;;;12.47;;
63346;SDS011;49472;49.880;8.650;2023-07-13T03:23:56;14.87;;;13.73;;
63346;SDS011;49472;49.880;8.650;2023-07-13T03:26:21;14.20;;;12.80;;
63346;SDS011;49472;49.880;8.650;2023-07-13T03:28:47;12.70;;;11.77;;
63346;SDS011;49472;49.880;8.650;2023-07-13T03:31:15;12.63;;;11.57;;
63346;SDS011;49472;49.880;8.650;2023-07-13T03:33:42;14.10;;;12.80;;
63346;SDS011;49472;49.880;8.650;2023-07-13T03:36:10;18.47;;;12.67;;
63346;SDS011;49472;49.880;8.650;2023-07-13T03:38:43;13.83;;;12.83;;
63346;SDS011;49472;49.880;8.650;2023-07-13T03:41:11;14.23;;;13.13;;
63346;SDS011;49472;49.880;8.650;2023-07-13T03:43:36;13.80;;;12.50;;
63346;SDS011;49472;49.880;8.650;2023-07-13T03:46:01;14.67;;;13.37;;
63346;SDS011;49472;49.880;8.650;2023-07-13T03:48:27;14.03;;;12.87;;
63346;SDS011;49472;49.880;8.650;2023-07-13T03:50:52;13.30;;;12.40;;
63346;SDS011;49472;49.880;8.650;2023-07-13T03:53:17;14.30;;;13.10;;
63346;SDS011;49472;49.880;8.650;2023-07-13T03:55:44;14.47;;;12.50;;
63346;SDS011;49472;49.880;8.650;2023-07-13T03:58:26;15.03;;;13.30;;
63346;SDS011;49472;49.880;8.650;2023-07-13T04:00:57;14.73;;;12.63;;
63346;SDS011;49472;49.880;8.650;2023-07-13T04:03:23;13.60;;;12.47;;
63346;SDS011;49472;49.880;8.650;2023-07-13T04:05:49;13.03;;;12.13;;
63346;SDS011;49472;49.880;8.650;2023-07-13T04:08:15;13.87;;;12.60;;
63346;SDS011;49472;49.880;8.650;2023-07-13T04:10:41;14.50;;;13.40;;
63346;SDS011;49472;49.880;8.650;2023-07-13T04:13:06;15.37;;;13.87;;
63346;SDS011;49472;49.880;8.650;2023-07-13T04:15:32;13.67;;;12.77;;
63346;SDS011;49472;49.880;8.650;2023-07-13T04:17:58;15.07;;;13.90;;
63346;SDS011;49472;49.880;8.650;2023-07-13T04:20:24;14.40;;;13.30;;
63346;SDS011;49472;49.880;8.650;2023-07-13T04:22:50;14.40;;;13.43;;
63346;SDS011;49472;49.880;8.650;2023-07-13T04:25:16;15.20;;;13.67;;
63346;SDS011;49472;49.880;8.650;2023-07-13T04:27:41;13.83;;;12.97;;
63346;SDS011;49472;49.880;8.650;2023-07-13T04:30:07;25.37;;;15.43;;
63346;SDS011;49472;49.880;8.650;2023-07-13T04:32:33;16.50;;;15.13;;
63346;SDS011;49472;49.880;8.650;2023-07-13T04:34:58;16.00;;;14.60;;
63346;SDS011;49472;49.880;8.650;2023-07-13T04:37:24;15.23;;;14.17;;
63346;SDS011;49472;49.880;8.650;2023-07-13T04:39:50;15.00;;;13.80;;
63346;SDS011;49472;49.880;8.650;2023-07-13T04:42:16;17.50;;;14.10;;
63346;SDS011;49472;49.880;8.650;2023-07-13T04:44:41;15.47;;;13.90;;
63346;SDS011;49472;49.880;8.650;2023-07-13T04:47:07;14.60;;;13.67;;
63346;SDS011;49472;49.880;8.650;2023-07-13T04:49:32;14.27;;;13.37;;
63346;SDS011;49472;49.880;8.650;2023-07-13T04:51:57;14.70;;;13.60;;
63346;SDS011;49472;49.880;8.650;2023-07-13T04:54:23;14.83;;;13.60;;
63346;SDS011;49472;49.880;8.650;2023-07-13T04:56:48;14.77;;;13.43;;
63346;SDS011;49472;49.880;8.650;2023-07-13T04:59:13;15.07;;;13.70;;
63346;SDS011;49472;49.880;8.650;2023-07-13T05:01:39;14.70;;;13.50;;
63346;SDS011;49472;49.880;8.650;2023-07-13T05:04:05;13.60;;;12.80;;
63346;SDS011;49472;49.880;8.650;2023-07-13T05:06:31;14.73;;;13.37;;
63346;SDS011;49472;49.880;8.650;2023-07-13T05:08:56;14.40;;;13.47;;
63346;SDS011;49472;49.880;8.650;2023-07-13T05:11:22;15.00;;;13.80;;
63346;SDS011;49472;49.880;8.650;2023-07-13T05:13:47;15.90;;;13.70;;
63346;SDS011;49472;49.880;8.650;2023-07-13T05:16:13;13.93;;;13.10;;
63346;SDS011;49472;49.880;8.650;2023-07-13T05:18:38;14.43;;;13.40;;
63346;SDS011;49472;49.880;8.650;2023-07-13T05:24:27;14.93;;;13.93;;
63346;SDS011;49472;49.880;8.650;2023-07-13T05:26:53;16.07;;;14.33;;
63346;SDS011;49472;49.880;8.650;2023-07-13T05:29:22;14.77;;;13.70;;
63346;SDS011;49472;49.880;8.650;2023-07-13T05:31:48;14.67;;;13.60;;
63346;SDS011;49472;49.880;8.650;2023-07-13T05:34:14;14.63;;;13.73;;
63346;SDS011;49472;49.880;8.650;2023-07-13T05:36:39;15.67;;;13.97;;
63346;SDS011;49472;49.880;8.650;2023-07-13T05:39:05;14.83;;;13.50;;
63346;SDS011;49472;49.880;8.650;2023-07-13T05:41:30;15.10;;;13.80;;
63346;SDS011;49472;49.880;8.650;2023-07-13T05:43:55;14.70;;;13.70;;
63346;SDS011;49472;49.880;8.650;2023-07-13T05:46:21;13.80;;;12.83;;
63346;SDS011;49472;49.880;8.650;2023-07-13T05:48:46;14.47;;;13.17;;
63346;SDS011;49472;49.880;8.650;2023-07-13T05:51:12;16.73;;;14.27;;
63346;SDS011;49472;49.880;8.650;2023-07-13T05:53:37;19.07;;;13.27;;
63346;SDS011;49472;49.880;8.650;2023-07-13T05:56:02;14.63;;;13.40;;
63346;SDS011;49472;49.880;8.650;2023-07-13T05:58:27;14.37;;;13.07;;
63346;SDS011;49472;49.880;8.650;2023-07-13T06:01:03;14.00;;;12.83;;
63346;SDS011;49472;49.880;8.650;2023-07-13T06:03:31;13.77;;;12.80;;
63346;SDS011;49472;49.880;8.650;2023-07-13T06:05:56;16.40;;;13.33;;
63346;SDS011;49472;49.880;8.650;2023-07-13T06:08:22;14.50;;;13.40;;
63346;SDS011;49472;49.880;8.650;2023-07-13T06:10:47;14.40;;;13.17;;
63346;SDS011;49472;49.880;8.650;2023-07-13T06:13:12;14.00;;;13.07;;
63346;SDS011;49472;49.880;8.650;2023-07-13T06:15:38;14.03;;;13.10;;
63346;SDS011;49472;49.880;8.650;2023-07-13T06:18:03;14.70;;;13.30;;
63346;SDS011;49472;49.880;8.650;2023-07-13T06:20:28;15.53;;;14.10;;
63346;SDS011;49472;49.880;8.650;2023-07-13T06:22:54;14.20;;;13.30;;
63346;SDS011;49472;49.880;8.650;2023-07-13T06:25:19;15.47;;;13.50;;
63346;SDS011;49472;49.880;8.650;2023-07-13T06:27:45;13.93;;;12.73;;
63346;SDS011;49472;49.880;8.650;2023-07-13T06:30:10;13.83;;;12.83;;
63346;SDS011;49472;49.880;8.650;2023-07-13T06:32:36;15.30;;;13.70;;
63346;SDS011;49472;49.880;8.650;2023-07-13T06:35:01;13.77;;;12.87;;
63346;SDS011;49472;49.880;8.650;2023-07-13T06:37:30;14.07;;;13.07;;
63346;SDS011;49472;49.880;8.650;2023-07-13T06:39:55;14.60;;;13.50;;
63346;SDS011;49472;49.880;8.650;2023-07-13T06:42:20;15.07;;;13.77;;
63346;SDS011;49472;49.880;8.650;2023-07-13T06:44:46;13.87;;;12.57;;
63346;SDS011;49472;49.880;8.650;2023-07-13T06:47:11;13.67;;;12.57;;
63346;SDS011;49472;49.880;8.650;2023-07-13T06:49:36;14.10;;;12.80;;
63346;SDS011;49472;49.880;8.650;2023-07-13T06:52:02;14.93;;;13.57;;
63346;SDS011;49472;49.880;8.650;2023-07-13T06:54:27;14.43;;;13.13;;
63346;SDS011;49472;49.880;8.650;2023-07-13T06:56:53;13.90;;;13.10;;
63346;SDS011;49472;49.880;8.650;2023-07-13T06:59:18;13.80;;;13.00;;
63346;SDS011;49472;49.880;8.650;2023-07-13T07:01:44;15.23;;;13.97;;
63346;SDS011;49472;49.880;8.650;2023-07-13T07:04:09;14.43;;;13.33;;
63346;SDS011;49472;49.880;8.650;2023-07-13T07:06:34;13.80;;;13.00;;
63346;SDS011;49472;49.880;8.650;2023-07-13T07:09:00;18.43;;;13.70;;
63346;SDS011;49472;49.880;8.650;2023-07-13T07:11:25;13.73;;;12.63;;
63346;SDS011;49472;49.880;8.650;2023-07-13T07:13:51;15.23;;;12.60;;
63346;SDS011;49472;49.880;8.650;2023-07-13T07:16:17;13.20;;;12.20;;
63346;SDS011;49472;49.880;8.650;2023-07-13T07:18:44;14.07;;;12.97;;
63346;SDS011;49472;49.880;8.650;2023-07-13T07:21:09;13.57;;;12.47;;
63346;SDS011;49472;49.880;8.650;2023-07-13T07:23:35;13.40;;;12.50;;
63346;SDS011;49472;49.880;8.650;2023-07-13T07:26:01;12.82;;;11.95;;
63346;SDS011;49472;49.880;8.650;2023-07-13T07:28:26;17.08;;;12.43;;
63346;SDS011;49472;49.880;8.650;2023-07-13T07:30:53;14.33;;;11.60;;
63346;SDS011;49472;49.880;8.650;2023-07-13T07:33:20;12.63;;;11.77;;
63346;SDS011;49472;49.880;8.650;2023-07-13T07:35:46;12.95;;;12.15;;
63346;SDS011;49472;49.880;8.650;2023-07-13T07:38:11;13.77;;;12.60;;
63346;SDS011;49472;49.880;8.650;2023-07-13T07:40:40;12.93;;;11.95;;
63346;SDS011;49472;49.880;8.650;2023-07-13T07:43:06;13.70;;;12.60;;
63346;SDS011;49472;49.880;8.650;2023-07-13T07:45:32;13.75;;;12.60;;
63346;SDS011;49472;49.880;8.650;2023-07-13T07:47:57;13.05;;;12.15;;
63346;SDS011;49472;49.880;8.650;2023-07-13T07:50:24;13.52;;;12.52;;
63346;SDS011;49472;49.880;8.650;2023-07-13T07:52:53;13.77;;;12.60;;
63346;SDS011;49472;49.880;8.650;2023-07-13T07:55:20;13.02;;;11.80;;
63346;SDS011;49472;49.880;8.650;2023-07-13T07:57:47;13.05;;;12.25;;
63346;SDS011;49472;49.880;8.650;2023-07-13T08:00:13;13.05;;;11.93;;
63346;SDS011;49472;49.880;8.650;2023-07-13T08:02:40;14.30;;;12.68;;
63346;SDS011;49472;49.880;8.650;2023-07-13T08:05:07;13.25;;;12.30;;
63346;SDS011;49472;49.880;8.650;2023-07-13T08:07:33;13.13;;;12.13;;
63346;SDS011;49472;49.880;8.650;2023-07-13T08:09:59;13.60;;;12.35;;
63346;SDS011;49472;49.880;8.650;2023-07-13T08:12:24;12.93;;;12.13;;
63346;SDS011;49472;49.880;8.650;2023-07-13T08:14:49;13.98;;;12.88;;
63346;SDS011;49472;49.880;8.650;2023-07-13T08:17:19;14.38;;;12.98;;
63346;SDS011;49472;49.880;8.650;2023-07-13T08:19:49;13.55;;;12.30;;
63346;SDS011;49472;49.880;8.650;2023-07-13T08:22:15;15.93;;;12.55;;
63346;SDS011;49472;49.880;8.650;2023-07-13T08:24:41;14.00;;;12.75;;
63346;SDS011;49472;49.880;8.650;2023-07-13T08:27:07;12.80;;;11.98;;
63346;SDS011;49472;49.880;8.650;2023-07-13T08:29:33;13.13;;;11.73;;
63346;SDS011;49472;49.880;8.650;2023-07-13T08:32:00;13.52;;;12.20;;
63346;SDS011;49472;49.880;8.650;2023-07-13T08:34:26;13.45;;;12.20;;
63346;SDS011;49472;49.880;8.650;2023-07-13T08:36:51;13.98;;;12.25;;
63346;SDS011;49472;49.880;8.650;2023-07-13T08:39:16;13.68;;;12.77;;
63346;SDS011;49472;49.880;8.650;2023-07-13T08:41:43;12.95;;;12.05;;
63346;SDS011;49472;49.880;8.650;2023-07-13T08:44:17;12.93;;;12.10;;
63346;SDS011;49472;49.880;8.650;2023-07-13T08:46:48;13.63;;;12.48;;
63346;SDS011;49472;49.880;8.650;2023-07-13T08:49:17;12.60;;;12.00;;
63346;SDS011;49472;49.880;8.650;2023-07-13T08:51:53;14.57;;;11.65;;
63346;SDS011;49472;49.880;8.650;2023-07-13T08:54:36;16.33;;;12.52;;
63346;SDS011;49472;49.880;8.650;2023-07-13T08:57:13;13.43;;;12.13;;
63346;SDS011;49472;49.880;8.650;2023-07-13T08:59:39;15.90;;;13.07;;
63346;SDS011;49472;49.880;8.650;2023-07-13T09:04:50;12.80;;;12.00;;
63346;SDS011;49472;49.880;8.650;2023-07-13T09:07:30;12.90;;;11.95;;
63346;SDS011;49472;49.880;8.650;2023-07-13T09:15:05;13.55;;;12.15;;
63346;SDS011;49472;49.880;8.650;2023-07-13T09:17:47;12.40;;;11.60;;
63346;SDS011;49472;49.880;8.650;2023-07-13T09:22:50;19.17;;;12.68;;
63346;SDS011;49472;49.880;8.650;2023-07-13T09:27:58;13.18;;;12.07;;
63346;SDS011;49472;49.880;8.650;2023-07-13T09:30:33;13.15;;;11.27;;
63346;SDS011;49472;49.880;8.650;2023-07-13T09:33:03;13.90;;;12.50;;
63346;SDS011;49472;49.880;8.650;2023-07-13T09:35:29;13.43;;;12.18;;
63346;SDS011;49472;49.880;8.650;2023-07-13T09:38:01;13.50;;;12.43;;
63346;SDS011;49472;49.880;8.650;2023-07-13T09:40:38;13.07;;;12.10;;
63346;SDS011;49472;49.880;8.650;2023-07-13T09:43:10;18.52;;;12.77;;
63346;SDS011;49472;49.880;8.650;2023-07-13T09:45:39;12.30;;;11.52;;
63346;SDS011;49472;49.880;8.650;2023-07-13T09:48:06;12.50;;;11.80;;
63346;SDS011;49472;49.880;8.650;2023-07-13T09:50:36;13.13;;;12.27;;
63346;SDS011;49472;49.880;8.650;2023-07-13T09:53:02;22.38;;;12.90;;
63346;SDS011;49472;49.880;8.650;2023-07-13T09:55:31;11.82;;;11.13;;
63346;SDS011;49472;49.880;8.650;2023-07-13T09:58:03;13.00;;;12.10;;
63346;SDS011;49472;49.880;8.650;2023-07-13T10:00:59;13.73;;;12.52;;
63346;SDS011;49472;49.880;8.650;2023-07-13T10:03:30;11.95;;;11.27;;
63346;SDS011;49472;49.880;8.650;2023-07-13T10:06:13;15.93;;;12.32;;
63346;SDS011;49472;49.880;8.650;2023-07-13T10:08:47;13.35;;;12.50;;
63346;SDS011;49472;49.880;8.650;2023-07-13T10:11:34;12.40;;;11.57;;
63346;SDS011;49472;49.880;8.650;2023-07-13T10:14:02;13.13;;;12.27;;
63346;SDS011;49472;49.880;8.650;2023-07-13T10:16:34;13.48;;;12.38;;
63346;SDS011;49472;49.880;8.650;2023-07-13T10:19:02;13.38;;;12.23;;
63346;SDS011;49472;49.880;8.650;2023-07-13T10:21:32;12.77;;;11.85;;
63346;SDS011;49472;49.880;8.650;2023-07-13T10:24:10;13.85;;;12.52;;
63346;SDS011;49472;49.880;8.650;2023-07-13T10:26:37;13.27;;;12.57;;
63346;SDS011;49472;49.880;8.650;2023-07-13T10:29:09;12.18;;;11.57;;
63346;SDS011;49472;49.880;8.650;2023-07-13T10:31:39;12.68;;;11.98;;
63346;SDS011;49472;49.880;8.650;2023-07-13T10:34:08;13.77;;;12.82;;
63346;SDS011;49472;49.880;8.650;2023-07-13T10:36:40;12.38;;;11.77;;
63346;SDS011;49472;49.880;8.650;2023-07-13T10:39:13;13.45;;;12.35;;
63346;SDS011;49472;49.880;8.650;2023-07-13T10:42:02;13.10;;;12.40;;
63346;SDS011;49472;49.880;8.650;2023-07-13T10:44:31;14.57;;;13.43;;
63346;SDS011;49472;49.880;8.650;2023-07-13T10:47:04;13.57;;;12.75;;
63346;SDS011;49472;49.880;8.650;2023-07-13T10:49:33;13.40;;;12.13;;
63346;SDS011;49472;49.880;8.650;2023-07-13T10:52:01;13.73;;;12.48;;
63346;SDS011;49472;49.880;8.650;2023-07-13T10:57:18;13.05;;;12.38;;
63346;SDS011;49472;49.880;8.650;2023-07-13T10:59:47;13.23;;;12.27;;
63346;SDS011;49472;49.880;8.650;2023-07-13T11:02:27;14.30;;;12.90;;
63346;SDS011;49472;49.880;8.650;2023-07-13T11:04:54;12.73;;;11.77;;
63346;SDS011;49472;49.880;8.650;2023-07-13T11:07:23;12.57;;;11.50;;
63346;SDS011;49472;49.880;8.650;2023-07-13T11:09:54;13.20;;;12.30;;
63346;SDS011;49472;49.880;8.650;2023-07-13T11:12:29;12.63;;;11.77;;
63346;SDS011;49472;49.880;8.650;2023-07-13T11:15:12;12.35;;;11.60;;
63346;SDS011;49472;49.880;8.650;2023-07-13T11:22:50;12.55;;;11.68;;
63346;SDS011;49472;49.880;8.650;2023-07-13T11:27:52;12.63;;;11.63;;
63346;SDS011;49472;49.880;8.650;2023-07-13T11:36:21;14.98;;;12.10;;
63346;SDS011;49472;49.880;8.650;2023-07-13T11:39:08;12.15;;;11.43;;
63346;SDS011;49472;49.880;8.650;2023-07-13T11:42:00;11.80;;;11.07;;
63346;SDS011;49472;49.880;8.650;2023-07-13T11:44:29;12.73;;;11.77;;
63346;SDS011;49472;49.880;8.650;2023-07-13T11:46:59;12.15;;;11.30;;
63346;SDS011;49472;49.880;8.650;2023-07-13T11:49:40;11.73;;;11.07;;
63346;SDS011;49472;49.880;8.650;2023-07-13T11:52:10;13.00;;;11.90;;
63346;SDS011;49472;49.880;8.650;2023-07-13T11:59:58;11.55;;;10.82;;
63346;SDS011;49472;49.880;8.650;2023-07-13T12:02:37;12.98;;;12.05;;
63346;SDS011;49472;49.880;8.650;2023-07-13T12:05:04;13.10;;;12.20;;
63346;SDS011;49472;49.880;8.650;2023-07-13T12:07:31;12.20;;;11.40;;
63346;SDS011;49472;49.880;8.650;2023-07-13T12:10:13;12.30;;;11.50;;
63346;SDS011;49472;49.880;8.650;2023-07-13T12:13:01;11.60;;;10.82;;
63346;SDS011;49472;49.880;8.650;2023-07-13T12:18:00;11.35;;;10.68;;
63346;SDS011;49472;49.880;8.650;2023-07-13T12:20:37;12.30;;;11.32;;
63346;SDS011;49472;49.880;8.650;2023-07-13T12:26:04;11.00;;;10.40;;
63346;SDS011;49472;49.880;8.650;2023-07-13T12:28:35;11.02;;;10.15;;
63346;SDS011;49472;49.880;8.650;2023-07-13T12:31:03;10.90;;;10.40;;
63346;SDS011;49472;49.880;8.650;2023-07-13T12:33:43;11.00;;;10.40;;
63346;SDS011;49472;49.880;8.650;2023-07-13T12:36:08;12.20;;;10.30;;
63346;SDS011;49472;49.880;8.650;2023-07-13T12:38:37;12.23;;;11.32;;
63346;SDS011;49472;49.880;8.650;2023-07-13T12:41:02;12.25;;;11.50;;
63346;SDS011;49472;49.880;8.650;2023-07-13T12:43:28;11.98;;;11.23;;
63346;SDS011;49472;49.880;8.650;2023-07-13T12:46:03;11.88;;;11.18;;
63346;SDS011;49472;49.880;8.650;2023-07-13T12:48:40;11.60;;;11.00;;
63346;SDS011;49472;49.880;8.650;2023-07-13T12:51:08;12.38;;;11.52;;
63346;SDS011;49472;49.880;8.650;2023-07-13T12:53:37;12.68;;;11.70;;
63346;SDS011;49472;49.880;8.650;2023-07-13T12:56:08;11.85;;;11.25;;
63346;SDS011;49472;49.880;8.650;2023-07-13T12:58:47;12.48;;;11.88;;
63346;SDS011;49472;49.880;8.650;2023-07-13T13:01:15;12.35;;;11.65;;
63346;SDS011;49472;49.880;8.650;2023-07-13T13:03:46;13.32;;;12.25;;
63346;SDS011;49472;49.880;8.650;2023-07-13T13:08:47;12.77;;;11.88;;
63346;SDS011;49472;49.880;8.650;2023-07-13T13:11:15;13.02;;;12.23;;
63346;SDS011;49472;49.880;8.650;2023-07-13T13:13:41;13.13;;;12.25;;
63346;SDS011;49472;49.880;8.650;2023-07-13T13:16:11;12.40;;;11.55;;
63346;SDS011;49472;49.880;8.650;2023-07-13T13:18:40;12.68;;;11.95;;
63346;SDS011;49472;49.880;8.650;2023-07-13T13:21:05;12.68;;;11.98;;
63346;SDS011;49472;49.880;8.650;2023-07-13T13:23:30;12.90;;;11.90;;
63346;SDS011;49472;49.880;8.650;2023-07-13T13:25:58;12.52;;;11.60;;
63346;SDS011;49472;49.880;8.650;2023-07-13T13:28:23;11.88;;;11.27;;
63346;SDS011;49472;49.880;8.650;2023-07-13T13:30:49;12.43;;;11.57;;
63346;SDS011;49472;49.880;8.650;2023-07-13T13:33:16;11.93;;;11.13;;
63346;SDS011;49472;49.880;8.650;2023-07-13T13:35:43;12.63;;;11.70;;
63346;SDS011;49472;49.880;8.650;2023-07-13T13:38:16;13.57;;;12.60;;
63346;SDS011;49472;49.880;8.650;2023-07-13T13:40:44;13.18;;;12.05;;
63346;SDS011;49472;49.880;8.650;2023-07-13T13:43:14;12.85;;;12.05;;
63346;SDS011;49472;49.880;8.650;2023-07-13T13:45:55;12.57;;;11.75;;
63346;SDS011;49472;49.880;8.650;2023-07-13T13:48:40;12.88;;;11.77;;
63346;SDS011;49472;49.880;8.650;2023-07-13T13:51:11;12.15;;;11.38;;
63346;SDS011;49472;49.880;8.650;2023-07-13T13:53:42;12.23;;;11.45;;
63346;SDS011;49472;49.880;8.650;2023-07-13T13:56:08;12.80;;;12.00;;
63346;SDS011;49472;49.880;8.650;2023-07-13T13:58:33;12.85;;;11.88;;
63346;SDS011;49472;49.880;8.650;2023-07-13T14:00:59;12.75;;;12.00;;
63346;SDS011;49472;49.880;8.650;2023-07-13T14:03:24;12.68;;;11.77;;
63346;SDS011;49472;49.880;8.650;2023-07-13T14:05:50;13.32;;;12.23;;
63346;SDS011;49472;49.880;8.650;2023-07-13T14:08:18;13.23;;;12.05;;
63346;SDS011;49472;49.880;8.650;2023-07-13T14:10:45;12.48;;;11.63;;
63346;SDS011;49472;49.880;8.650;2023-07-13T14:13:16;12.38;;;11.38;;
63346;SDS011;49472;49.880;8.650;2023-07-13T14:15:45;12.40;;;11.30;;
63346;SDS011;49472;49.880;8.650;2023-07-13T14:18:10;12.05;;;11.23;;
63346;SDS011;49472;49.880;8.650;2023-07-13T14:20:37;12.60;;;11.70;;
63346;SDS011;49472;49.880;8.650;2023-07-13T14:23:03;13.48;;;11.48;;
63346;SDS011;49472;49.880;8.650;2023-07-13T14:25:28;13.45;;;12.27;;
63346;SDS011;49472;49.880;8.650;2023-07-13T14:27:55;12.95;;;11.80;;
63346;SDS011;49472;49.880;8.650;2023-07-13T14:30:24;12.88;;;11.80;;
63346;SDS011;49472;49.880;8.650;2023-07-13T14:32:50;12.30;;;11.60;;
63346;SDS011;49472;49.880;8.650;2023-07-13T14:35:18;13.05;;;11.75;;
63346;SDS011;49472;49.880;8.650;2023-07-13T14:37:47;11.82;;;11.23;;
63346;SDS011;49472;49.880;8.650;2023-07-13T14:42:38;11.77;;;10.88;;
63346;SDS011;49472;49.880;8.650;2023-07-13T14:45:03;12.23;;;11.52;;
63346;SDS011;49472;49.880;8.650;2023-07-13T14:47:29;12.73;;;11.80;;
63346;SDS011;49472;49.880;8.650;2023-07-13T14:49:55;12.73;;;11.73;;
63346;SDS011;49472;49.880;8.650;2023-07-13T14:52:21;12.90;;;11.93;;
63346;SDS011;49472;49.880;8.650;2023-07-13T14:54:48;11.88;;;11.07;;
63346;SDS011;49472;49.880;8.650;2023-07-13T14:57:17;12.02;;;11.32;;
63346;SDS011;49472;49.880;8.650;2023-07-13T14:59:44;12.07;;;11.30;;
63346;SDS011;49472;49.880;8.650;2023-07-13T15:04:47;10.60;;;10.10;;
63346;SDS011;49472;49.880;8.650;2023-07-13T15:07:14;11.52;;;10.70;;
63346;SDS011;49472;49.880;8.650;2023-07-13T15:09:41;12.98;;;11.85;;
63346;SDS011;49472;49.880;8.650;2023-07-13T15:12:07;11.93;;;10.95;;
63346;SDS011;49472;49.880;8.650;2023-07-13T15:14:32;11.73;;;10.93;;
63346;SDS011;49472;49.880;8.650;2023-07-13T15:16:58;11.80;;;11.20;;
63346;SDS011;49472;49.880;8.650;2023-07-13T15:19:23;11.77;;;10.98;;